sensor_id;sensor_type;location;lat;lon;timestamp;temperature;humidity
27270;DHT22;14769;56.934;24.176;2022-11-20T00:00:24;-3.00;99.90
27270;DHT22;14769;56.934;24.176;2022-11-20T00:01:39;-3.00;99.90
27270;DHT22;14769;56.934;24.176;2022-11-20T00:02:56;-3.00;99.90
27270;DHT22;14769;56.934;24.176;2022-11-20T00:04:00;-3.00;99.90
27270;DHT22;14769;56.934;24.176;2022-11-20T00:05:11;-3.00;99.90
27270;DHT22;14769;56.934;24.176;2022-11-20T00:06:20;-3.00;99.90
27270;DHT22;14769;56.934;24.176;2022-11-20T00:07:37;-3.00;99.90
27270;DHT22;14769;56.934;24.176;2022-11-20T00:08:45;-3.00;99.90
27270;DHT22;14769;56.934;24.176;2022-11-20T00:09:59;-3.00;99.90
27270;DHT22;14769;56.934;24.176;2022-11-20T00:11:26;-3.00;99.90
27270;DHT22;14769;56.934;24.176;2022-11-20T00:12:37;-3.00;99.90
27270;DHT22;14769;56.934;24.176;2022-11-20T00:13:52;-3.00;99.90
27270;DHT22;14769;56.934;24.176;2022-11-20T00:15:03;-3.10;99.90
27270;DHT22;14769;56.934;24.176;2022-11-20T00:16:20;-3.10;99.90
27270;DHT22;14769;56.934;24.176;2022-11-20T00:17:29;-3.10;99.90
27270;DHT22;14769;56.934;24.176;2022-11-20T00:18:36;-3.10;99.90
27270;DHT22;14769;56.934;24.176;2022-11-20T00:19:46;-3.10;99.90
27270;DHT22;14769;56.934;24.176;2022-11-20T00:21:18;-3.10;99.90
27270;DHT22;14769;56.934;24.176;2022-11-20T00:22:40;-3.10;99.90
27270;DHT22;14769;56.934;24.176;2022-11-20T00:23:57;-3.10;99.90
27270;DHT22;14769;56.934;24.176;2022-11-20T00:25:15;-3.10;99.90
27270;DHT22;14769;56.934;24.176;2022-11-20T00:26:29;-3.10;99.90
27270;DHT22;14769;56.934;24.176;2022-11-20T00:27:45;-3.00;99.90
27270;DHT22;14769;56.934;24.176;2022-11-20T00:29:02;-3.00;99.90
27270;DHT22;14769;56.934;24.176;2022-11-20T00:30:09;-3.00;99.90
27270;DHT22;14769;56.934;24.176;2022-11-20T00:31:16;-3.00;99.90
27270;DHT22;14769;56.934;24.176;2022-11-20T00:32:29;-3.00;99.90
27270;DHT22;14769;56.934;24.176;2022-11-20T00:33:46;-3.00;99.90
27270;DHT22;14769;56.934;24.176;2022-11-20T00:34:54;-3.00;99.90
27270;DHT22;14769;56.934;24.176;2022-11-20T00:36:15;-3.00;99.90
27270;DHT22;14769;56.934;24.176;2022-11-20T00:37:35;-3.00;99.90
27270;DHT22;14769;56.934;24.176;2022-11-20T00:38:56;-3.10;99.90
27270;DHT22;14769;56.934;24.176;2022-11-20T00:40:00;-3.10;99.90
27270;DHT22;14769;56.934;24.176;2022-11-20T00:41:09;-3.10;99.90
27270;DHT22;14769;56.934;24.176;2022-11-20T00:42:22;-3.10;99.90
27270;DHT22;14769;56.934;24.176;2022-11-20T00:43:46;-3.10;99.90
27270;DHT22;14769;56.934;24.176;2022-11-20T00:44:59;-3.10;99.90
27270;DHT22;14769;56.934;24.176;2022-11-20T00:46:14;-3.10;99.90
27270;DHT22;14769;56.934;24.176;2022-11-20T00:47:56;-3.10;99.90
27270;DHT22;14769;56.934;24.176;2022-11-20T00:49:41;-3.10;99.90
27270;DHT22;14769;56.934;24.176;2022-11-20T00:51:38;-3.10;99.90
27270;DHT22;14769;56.934;24.176;2022-11-20T00:52:43;-3.20;99.90
27270;DHT22;14769;56.934;24.176;2022-11-20T00:53:55;-3.20;99.90
27270;DHT22;14769;56.934;24.176;2022-11-20T00:55:04;-3.20;99.90
27270;DHT22;14769;56.934;24.176;2022-11-20T00:56:22;-3.20;99.90
27270;DHT22;14769;56.934;24.176;2022-11-20T00:57:26;-3.20;99.90
27270;DHT22;14769;56.934;24.176;2022-11-20T00:58:40;-3.20;99.90
27270;DHT22;14769;56.934;24.176;2022-11-20T00:59:50;-3.20;99.90
27270;DHT22;14769;56.934;24.176;2022-11-20T01:01:22;-3.20;99.90
27270;DHT22;14769;56.934;24.176;2022-11-20T01:02:39;-3.20;99.90
27270;DHT22;14769;56.934;24.176;2022-11-20T01:04:04;-3.20;99.90
27270;DHT22;14769;56.934;24.176;2022-11-20T01:05:12;-3.20;99.90
27270;DHT22;14769;56.934;24.176;2022-11-20T01:06:28;-3.20;99.90
27270;DHT22;14769;56.934;24.176;2022-11-20T01:07:36;-3.20;99.90
27270;DHT22;14769;56.934;24.176;2022-11-20T01:08:39;-3.20;99.90
27270;DHT22;14769;56.934;24.176;2022-11-20T01:09:43;-3.20;99.90
27270;DHT22;14769;56.934;24.176;2022-11-20T01:10:46;-3.20;99.90
27270;DHT22;14769;56.934;24.176;2022-11-20T01:11:49;-3.20;99.90
27270;DHT22;14769;56.934;24.176;2022-11-20T01:12:52;-3.20;99.90
27270;DHT22;14769;56.934;24.176;2022-11-20T01:14:17;-3.20;99.90
27270;DHT22;14769;56.934;24.176;2022-11-20T01:15:20;-3.20;99.90
27270;DHT22;14769;56.934;24.176;2022-11-20T01:16:33;-3.20;99.90
27270;DHT22;14769;56.934;24.176;2022-11-20T01:17:36;-3.20;99.90
27270;DHT22;14769;56.934;24.176;2022-11-20T01:19:00;-3.20;99.90
27270;DHT22;14769;56.934;24.176;2022-11-20T01:20:18;-3.20;99.90
27270;DHT22;14769;56.934;24.176;2022-11-20T01:21:29;-3.20;99.90
27270;DHT22;14769;56.934;24.176;2022-11-20T01:22:48;-3.20;99.90
27270;DHT22;14769;56.934;24.176;2022-11-20T01:23:55;-3.20;99.90
27270;DHT22;14769;56.934;24.176;2022-11-20T01:25:14;-3.20;99.90
27270;DHT22;14769;56.934;24.176;2022-11-20T01:26:38;-3.20;99.90
27270;DHT22;14769;56.934;24.176;2022-11-20T01:27:59;-3.20;99.90
27270;DHT22;14769;56.934;24.176;2022-11-20T01:34:21;-3.20;99.90
27270;DHT22;14769;56.934;24.176;2022-11-20T01:35:28;-3.30;99.90
27270;DHT22;14769;56.934;24.176;2022-11-20T01:37:19;-3.30;99.90
27270;DHT22;14769;56.934;24.176;2022-11-20T01:38:58;-3.30;99.90
27270;DHT22;14769;56.934;24.176;2022-11-20T01:40:11;-3.30;99.90
27270;DHT22;14769;56.934;24.176;2022-11-20T01:41:15;-3.30;99.90
27270;DHT22;14769;56.934;24.176;2022-11-20T01:42:38;-3.30;99.90
27270;DHT22;14769;56.934;24.176;2022-11-20T01:44:10;-3.30;99.90
27270;DHT22;14769;56.934;24.176;2022-11-20T01:45:52;-3.30;99.90
27270;DHT22;14769;56.934;24.176;2022-11-20T01:47:07;-3.30;99.90
27270;DHT22;14769;56.934;24.176;2022-11-20T01:48:14;-3.30;99.90
27270;DHT22;14769;56.934;24.176;2022-11-20T01:49:34;-3.30;99.90
27270;DHT22;14769;56.934;24.176;2022-11-20T01:50:55;-3.30;99.90
27270;DHT22;14769;56.934;24.176;2022-11-20T01:52:34;-3.20;99.90
27270;DHT22;14769;56.934;24.176;2022-11-20T01:54:23;-3.20;99.90
27270;DHT22;14769;56.934;24.176;2022-11-20T01:56:25;-3.20;99.90
27270;DHT22;14769;56.934;24.176;2022-11-20T01:58:11;-3.20;99.90
27270;DHT22;14769;56.934;24.176;2022-11-20T02:00:04;-3.30;99.90
27270;DHT22;14769;56.934;24.176;2022-11-20T02:01:36;-3.30;99.90
27270;DHT22;14769;56.934;24.176;2022-11-20T02:03:38;-3.30;99.90
27270;DHT22;14769;56.934;24.176;2022-11-20T02:10:25;-3.30;99.90
27270;DHT22;14769;56.934;24.176;2022-11-20T02:12:09;-3.40;99.90
27270;DHT22;14769;56.934;24.176;2022-11-20T02:14:19;-3.40;99.90
27270;DHT22;14769;56.934;24.176;2022-11-20T02:16:01;-3.40;99.90
27270;DHT22;14769;56.934;24.176;2022-11-20T02:26:25;-3.40;99.90
27270;DHT22;14769;56.934;24.176;2022-11-20T02:34:17;-3.40;99.90
27270;DHT22;14769;56.934;24.176;2022-11-20T02:36:21;-3.30;99.90
27270;DHT22;14769;56.934;24.176;2022-11-20T02:40:27;-3.40;99.90
27270;DHT22;14769;56.934;24.176;2022-11-20T02:42:32;-3.40;99.90
27270;DHT22;14769;56.934;24.176;2022-11-20T02:44:28;-3.40;99.90
27270;DHT22;14769;56.934;24.176;2022-11-20T02:46:15;-3.40;99.90
27270;DHT22;14769;56.934;24.176;2022-11-20T02:47:44;-3.40;99.90
27270;DHT22;14769;56.934;24.176;2022-11-20T02:49:25;-3.40;99.90
27270;DHT22;14769;56.934;24.176;2022-11-20T02:50:54;-3.40;99.90
27270;DHT22;14769;56.934;24.176;2022-11-20T02:52:29;-3.40;99.90
27270;DHT22;14769;56.934;24.176;2022-11-20T02:54:03;-3.40;99.90
27270;DHT22;14769;56.934;24.176;2022-11-20T02:55:06;-3.40;99.90
27270;DHT22;14769;56.934;24.176;2022-11-20T02:56:16;-3.40;99.90
27270;DHT22;14769;56.934;24.176;2022-11-20T02:57:22;-3.40;99.90
27270;DHT22;14769;56.934;24.176;2022-11-20T02:58:34;-3.40;99.90
27270;DHT22;14769;56.934;24.176;2022-11-20T02:59:54;-3.30;99.90
27270;DHT22;14769;56.934;24.176;2022-11-20T03:01:24;-3.30;99.90
27270;DHT22;14769;56.934;24.176;2022-11-20T03:03:41;-3.40;99.90
27270;DHT22;14769;56.934;24.176;2022-11-20T03:05:17;-3.40;99.90
27270;DHT22;14769;56.934;24.176;2022-11-20T03:06:20;-3.50;99.90
27270;DHT22;14769;56.934;24.176;2022-11-20T03:07:30;-3.40;99.90
27270;DHT22;14769;56.934;24.176;2022-11-20T03:08:40;-3.40;99.90
27270;DHT22;14769;56.934;24.176;2022-11-20T03:09:53;-3.40;99.90
27270;DHT22;14769;56.934;24.176;2022-11-20T03:11:51;-3.40;99.90
27270;DHT22;14769;56.934;24.176;2022-11-20T03:15:07;-3.40;99.90
27270;DHT22;14769;56.934;24.176;2022-11-20T03:16:14;-3.50;99.90
27270;DHT22;14769;56.934;24.176;2022-11-20T03:17:22;-3.50;99.90
27270;DHT22;14769;56.934;24.176;2022-11-20T03:18:38;-3.50;99.90
27270;DHT22;14769;56.934;24.176;2022-11-20T03:19:50;-3.50;99.90
27270;DHT22;14769;56.934;24.176;2022-11-20T03:21:28;-3.40;99.90
27270;DHT22;14769;56.934;24.176;2022-11-20T03:23:12;-3.50;99.90
27270;DHT22;14769;56.934;24.176;2022-11-20T03:24:16;-3.50;99.90
27270;DHT22;14769;56.934;24.176;2022-11-20T03:25:20;-3.50;99.90
27270;DHT22;14769;56.934;24.176;2022-11-20T03:26:26;-3.50;99.90
27270;DHT22;14769;56.934;24.176;2022-11-20T03:27:34;-3.50;99.90
27270;DHT22;14769;56.934;24.176;2022-11-20T03:28:36;-3.50;99.90
27270;DHT22;14769;56.934;24.176;2022-11-20T03:29:42;-3.50;99.90
27270;DHT22;14769;56.934;24.176;2022-11-20T03:31:08;-3.50;99.90
27270;DHT22;14769;56.934;24.176;2022-11-20T03:32:25;-3.50;99.90
27270;DHT22;14769;56.934;24.176;2022-11-20T03:33:30;-3.50;99.90
27270;DHT22;14769;56.934;24.176;2022-11-20T03:34:45;-3.50;99.90
27270;DHT22;14769;56.934;24.176;2022-11-20T03:35:51;-3.50;99.90
27270;DHT22;14769;56.934;24.176;2022-11-20T03:37:06;-3.50;99.90
27270;DHT22;14769;56.934;24.176;2022-11-20T03:38:09;-3.50;99.90
27270;DHT22;14769;56.934;24.176;2022-11-20T03:39:28;-3.50;99.90
27270;DHT22;14769;56.934;24.176;2022-11-20T03:40:33;-3.50;99.90
27270;DHT22;14769;56.934;24.176;2022-11-20T03:41:40;-3.50;99.90
27270;DHT22;14769;56.934;24.176;2022-11-20T03:42:43;-3.60;99.90
27270;DHT22;14769;56.934;24.176;2022-11-20T03:43:54;-3.50;99.90
27270;DHT22;14769;56.934;24.176;2022-11-20T03:45:04;-3.50;99.90
27270;DHT22;14769;56.934;24.176;2022-11-20T03:46:07;-3.60;99.90
27270;DHT22;14769;56.934;24.176;2022-11-20T03:47:09;-3.50;99.90
27270;DHT22;14769;56.934;24.176;2022-11-20T03:48:11;-3.50;99.90
27270;DHT22;14769;56.934;24.176;2022-11-20T03:49:16;-3.50;99.90
27270;DHT22;14769;56.934;24.176;2022-11-20T03:50:22;-3.50;99.90
27270;DHT22;14769;56.934;24.176;2022-11-20T03:52:28;-3.50;99.90
27270;DHT22;14769;56.934;24.176;2022-11-20T03:53:31;-3.50;99.90
27270;DHT22;14769;56.934;24.176;2022-11-20T03:54:33;-3.60;99.90
27270;DHT22;14769;56.934;24.176;2022-11-20T03:55:36;-3.50;99.90
27270;DHT22;14769;56.934;24.176;2022-11-20T03:56:38;-3.50;99.90
27270;DHT22;14769;56.934;24.176;2022-11-20T03:57:42;-3.50;99.90
27270;DHT22;14769;56.934;24.176;2022-11-20T03:58:47;-3.50;99.90
27270;DHT22;14769;56.934;24.176;2022-11-20T03:59:50;-3.50;99.90
27270;DHT22;14769;56.934;24.176;2022-11-20T04:00:53;-3.50;99.90
27270;DHT22;14769;56.934;24.176;2022-11-20T04:01:57;-3.50;99.90
27270;DHT22;14769;56.934;24.176;2022-11-20T04:03:00;-3.50;99.90
27270;DHT22;14769;56.934;24.176;2022-11-20T04:04:03;-3.50;99.90
27270;DHT22;14769;56.934;24.176;2022-11-20T04:05:07;-3.50;99.90
27270;DHT22;14769;56.934;24.176;2022-11-20T04:06:19;-3.50;99.90
27270;DHT22;14769;56.934;24.176;2022-11-20T04:07:23;-3.50;99.90
27270;DHT22;14769;56.934;24.176;2022-11-20T04:08:25;-3.50;99.90
27270;DHT22;14769;56.934;24.176;2022-11-20T04:09:28;-3.40;99.90
27270;DHT22;14769;56.934;24.176;2022-11-20T04:10:31;-3.50;99.90
27270;DHT22;14769;56.934;24.176;2022-11-20T04:11:36;-3.50;99.90
27270;DHT22;14769;56.934;24.176;2022-11-20T04:12:43;-3.50;99.90
27270;DHT22;14769;56.934;24.176;2022-11-20T04:13:48;-3.50;99.90
27270;DHT22;14769;56.934;24.176;2022-11-20T04:14:52;-3.50;99.90
27270;DHT22;14769;56.934;24.176;2022-11-20T04:15:57;-3.50;99.90
27270;DHT22;14769;56.934;24.176;2022-11-20T04:17:00;-3.50;99.90
27270;DHT22;14769;56.934;24.176;2022-11-20T04:18:14;-3.40;99.90
27270;DHT22;14769;56.934;24.176;2022-11-20T04:19:20;-3.50;99.90
27270;DHT22;14769;56.934;24.176;2022-11-20T04:20:48;-3.50;99.90
27270;DHT22;14769;56.934;24.176;2022-11-20T04:22:06;-3.50;99.90
27270;DHT22;14769;56.934;24.176;2022-11-20T04:23:10;-3.50;99.90
27270;DHT22;14769;56.934;24.176;2022-11-20T04:24:13;-3.50;99.90
27270;DHT22;14769;56.934;24.176;2022-11-20T04:25:26;-3.50;99.90
27270;DHT22;14769;56.934;24.176;2022-11-20T04:26:32;-3.50;99.90
27270;DHT22;14769;56.934;24.176;2022-11-20T04:27:34;-3.50;99.90
27270;DHT22;14769;56.934;24.176;2022-11-20T04:28:37;-3.50;99.90
27270;DHT22;14769;56.934;24.176;2022-11-20T04:29:40;-3.50;99.90
27270;DHT22;14769;56.934;24.176;2022-11-20T04:30:46;-3.50;99.90
27270;DHT22;14769;56.934;24.176;2022-11-20T04:31:50;-3.50;99.90
27270;DHT22;14769;56.934;24.176;2022-11-20T04:32:54;-3.50;99.90
27270;DHT22;14769;56.934;24.176;2022-11-20T04:34:01;-3.50;99.90
27270;DHT22;14769;56.934;24.176;2022-11-20T04:35:06;-3.50;99.90
27270;DHT22;14769;56.934;24.176;2022-11-20T04:36:14;-3.50;99.90
27270;DHT22;14769;56.934;24.176;2022-11-20T04:37:17;-3.50;99.90
27270;DHT22;14769;56.934;24.176;2022-11-20T04:38:20;-3.50;99.90
27270;DHT22;14769;56.934;24.176;2022-11-20T04:39:25;-3.50;99.90
27270;DHT22;14769;56.934;24.176;2022-11-20T04:40:28;-3.50;99.90
27270;DHT22;14769;56.934;24.176;2022-11-20T04:41:35;-3.60;99.90
27270;DHT22;14769;56.934;24.176;2022-11-20T04:42:37;-3.60;99.90
27270;DHT22;14769;56.934;24.176;2022-11-20T04:43:41;-3.60;99.90
27270;DHT22;14769;56.934;24.176;2022-11-20T04:44:44;-3.60;99.90
27270;DHT22;14769;56.934;24.176;2022-11-20T04:45:53;-3.60;99.90
27270;DHT22;14769;56.934;24.176;2022-11-20T04:46:57;-3.60;99.90
27270;DHT22;14769;56.934;24.176;2022-11-20T04:48:07;-3.60;99.90
27270;DHT22;14769;56.934;24.176;2022-11-20T04:49:10;-3.60;99.90
27270;DHT22;14769;56.934;24.176;2022-11-20T04:50:14;-3.70;99.90
27270;DHT22;14769;56.934;24.176;2022-11-20T04:51:18;-3.70;99.90
27270;DHT22;14769;56.934;24.176;2022-11-20T04:52:22;-3.60;99.90
27270;DHT22;14769;56.934;24.176;2022-11-20T04:53:25;-3.60;99.90
27270;DHT22;14769;56.934;24.176;2022-11-20T04:54:30;-3.60;99.90
27270;DHT22;14769;56.934;24.176;2022-11-20T04:55:32;-3.60;99.90
27270;DHT22;14769;56.934;24.176;2022-11-20T04:56:36;-3.60;99.90
27270;DHT22;14769;56.934;24.176;2022-11-20T04:57:39;-3.60;99.90
27270;DHT22;14769;56.934;24.176;2022-11-20T04:58:42;-3.60;99.90
27270;DHT22;14769;56.934;24.176;2022-11-20T04:59:46;-3.60;99.90
27270;DHT22;14769;56.934;24.176;2022-11-20T05:00:50;-3.60;99.90
27270;DHT22;14769;56.934;24.176;2022-11-20T05:02:04;-3.60;99.90
27270;DHT22;14769;56.934;24.176;2022-11-20T05:03:15;-3.60;99.90
27270;DHT22;14769;56.934;24.176;2022-11-20T05:04:19;-3.60;99.90
27270;DHT22;14769;56.934;24.176;2022-11-20T05:05:24;-3.60;99.90
27270;DHT22;14769;56.934;24.176;2022-11-20T05:06:32;-3.60;99.90
27270;DHT22;14769;56.934;24.176;2022-11-20T05:07:37;-3.60;99.90
27270;DHT22;14769;56.934;24.176;2022-11-20T05:08:40;-3.60;99.90
27270;DHT22;14769;56.934;24.176;2022-11-20T05:09:55;-3.60;99.90
27270;DHT22;14769;56.934;24.176;2022-11-20T05:12:08;-3.60;99.90
27270;DHT22;14769;56.934;24.176;2022-11-20T05:13:11;-3.60;99.90
27270;DHT22;14769;56.934;24.176;2022-11-20T05:14:18;-3.60;99.90
27270;DHT22;14769;56.934;24.176;2022-11-20T05:15:24;-3.70;99.90
27270;DHT22;14769;56.934;24.176;2022-11-20T05:16:28;-3.60;99.90
27270;DHT22;14769;56.934;24.176;2022-11-20T05:17:33;-3.60;99.90
27270;DHT22;14769;56.934;24.176;2022-11-20T05:18:36;-3.60;99.90
27270;DHT22;14769;56.934;24.176;2022-11-20T05:19:46;-3.60;99.90
27270;DHT22;14769;56.934;24.176;2022-11-20T05:20:58;-3.60;99.90
27270;DHT22;14769;56.934;24.176;2022-11-20T05:22:01;-3.60;99.90
27270;DHT22;14769;56.934;24.176;2022-11-20T05:23:05;-3.60;99.90
27270;DHT22;14769;56.934;24.176;2022-11-20T05:24:13;-3.60;99.90
27270;DHT22;14769;56.934;24.176;2022-11-20T05:25:17;-3.60;99.90
27270;DHT22;14769;56.934;24.176;2022-11-20T05:26:37;-3.60;99.90
27270;DHT22;14769;56.934;24.176;2022-11-20T05:27:41;-3.60;99.90
27270;DHT22;14769;56.934;24.176;2022-11-20T05:28:44;-3.70;99.90
27270;DHT22;14769;56.934;24.176;2022-11-20T05:29:47;-3.60;99.90
27270;DHT22;14769;56.934;24.176;2022-11-20T05:30:50;-3.60;99.90
27270;DHT22;14769;56.934;24.176;2022-11-20T05:31:54;-3.70;99.90
27270;DHT22;14769;56.934;24.176;2022-11-20T05:32:57;-3.60;99.90
27270;DHT22;14769;56.934;24.176;2022-11-20T05:33:59;-3.60;99.90
27270;DHT22;14769;56.934;24.176;2022-11-20T05:35:02;-3.60;99.90
27270;DHT22;14769;56.934;24.176;2022-11-20T05:36:08;-3.60;99.90
27270;DHT22;14769;56.934;24.176;2022-11-20T05:37:12;-3.60;99.90
27270;DHT22;14769;56.934;24.176;2022-11-20T05:38:19;-3.60;99.90
27270;DHT22;14769;56.934;24.176;2022-11-20T05:39:28;-3.60;99.90
27270;DHT22;14769;56.934;24.176;2022-11-20T05:40:31;-3.60;99.90
27270;DHT22;14769;56.934;24.176;2022-11-20T05:41:37;-3.60;99.90
27270;DHT22;14769;56.934;24.176;2022-11-20T05:42:43;-3.60;99.90
27270;DHT22;14769;56.934;24.176;2022-11-20T05:43:48;-3.70;99.90
27270;DHT22;14769;56.934;24.176;2022-11-20T05:44:52;-3.70;99.90
27270;DHT22;14769;56.934;24.176;2022-11-20T05:45:54;-3.70;99.90
27270;DHT22;14769;56.934;24.176;2022-11-20T05:46:58;-3.70;99.90
27270;DHT22;14769;56.934;24.176;2022-11-20T05:48:00;-3.70;99.90
27270;DHT22;14769;56.934;24.176;2022-11-20T05:49:03;-3.60;99.90
27270;DHT22;14769;56.934;24.176;2022-11-20T05:50:07;-3.60;99.90
27270;DHT22;14769;56.934;24.176;2022-11-20T05:51:14;-3.60;99.90
27270;DHT22;14769;56.934;24.176;2022-11-20T05:52:18;-3.70;99.90
27270;DHT22;14769;56.934;24.176;2022-11-20T05:53:22;-3.60;99.90
27270;DHT22;14769;56.934;24.176;2022-11-20T05:54:28;-3.60;99.90
27270;DHT22;14769;56.934;24.176;2022-11-20T05:55:34;-3.70;99.90
27270;DHT22;14769;56.934;24.176;2022-11-20T05:56:38;-3.70;99.90
27270;DHT22;14769;56.934;24.176;2022-11-20T05:57:42;-3.70;99.90
27270;DHT22;14769;56.934;24.176;2022-11-20T05:58:47;-3.70;99.90
27270;DHT22;14769;56.934;24.176;2022-11-20T05:59:49;-3.70;99.90
27270;DHT22;14769;56.934;24.176;2022-11-20T06:00:54;-3.60;99.90
27270;DHT22;14769;56.934;24.176;2022-11-20T06:01:57;-3.60;99.90
27270;DHT22;14769;56.934;24.176;2022-11-20T06:02:59;-3.70;99.90
27270;DHT22;14769;56.934;24.176;2022-11-20T06:04:01;-3.70;99.90
27270;DHT22;14769;56.934;24.176;2022-11-20T06:05:05;-3.70;99.90
27270;DHT22;14769;56.934;24.176;2022-11-20T06:06:08;-3.70;99.90
27270;DHT22;14769;56.934;24.176;2022-11-20T06:07:10;-3.60;99.90
27270;DHT22;14769;56.934;24.176;2022-11-20T06:08:12;-3.60;99.90
27270;DHT22;14769;56.934;24.176;2022-11-20T06:09:15;-3.60;99.90
27270;DHT22;14769;56.934;24.176;2022-11-20T06:10:18;-3.60;99.90
27270;DHT22;14769;56.934;24.176;2022-11-20T06:11:20;-3.70;99.90
27270;DHT22;14769;56.934;24.176;2022-11-20T06:12:24;-3.60;99.90
27270;DHT22;14769;56.934;24.176;2022-11-20T06:13:26;-3.60;99.90
27270;DHT22;14769;56.934;24.176;2022-11-20T06:14:32;-3.60;99.90
27270;DHT22;14769;56.934;24.176;2022-11-20T06:15:37;-3.60;99.90
27270;DHT22;14769;56.934;24.176;2022-11-20T06:16:39;-3.60;99.90
27270;DHT22;14769;56.934;24.176;2022-11-20T06:17:42;-3.70;99.90
27270;DHT22;14769;56.934;24.176;2022-11-20T06:18:45;-3.60;99.90
27270;DHT22;14769;56.934;24.176;2022-11-20T06:19:47;-3.70;99.90
27270;DHT22;14769;56.934;24.176;2022-11-20T06:20:49;-3.60;99.90
27270;DHT22;14769;56.934;24.176;2022-11-20T06:21:51;-3.60;99.90
27270;DHT22;14769;56.934;24.176;2022-11-20T06:22:53;-3.60;99.90
27270;DHT22;14769;56.934;24.176;2022-11-20T06:23:57;-3.60;99.90
27270;DHT22;14769;56.934;24.176;2022-11-20T06:24:59;-3.60;99.90
27270;DHT22;14769;56.934;24.176;2022-11-20T06:26:09;-3.60;99.90
27270;DHT22;14769;56.934;24.176;2022-11-20T06:27:12;-3.60;99.90
27270;DHT22;14769;56.934;24.176;2022-11-20T06:28:17;-3.60;99.90
27270;DHT22;14769;56.934;24.176;2022-11-20T06:29:20;-3.60;99.90
27270;DHT22;14769;56.934;24.176;2022-11-20T06:30:22;-3.60;99.90
27270;DHT22;14769;56.934;24.176;2022-11-20T06:31:25;-3.50;99.90
27270;DHT22;14769;56.934;24.176;2022-11-20T06:32:29;-3.50;99.90
27270;DHT22;14769;56.934;24.176;2022-11-20T06:33:33;-3.60;99.90
27270;DHT22;14769;56.934;24.176;2022-11-20T06:34:36;-3.50;99.90
27270;DHT22;14769;56.934;24.176;2022-11-20T06:35:39;-3.60;99.90
27270;DHT22;14769;56.934;24.176;2022-11-20T06:36:41;-3.60;99.90
27270;DHT22;14769;56.934;24.176;2022-11-20T06:37:43;-3.60;99.90
27270;DHT22;14769;56.934;24.176;2022-11-20T06:38:45;-3.60;99.90
27270;DHT22;14769;56.934;24.176;2022-11-20T06:39:47;-3.60;99.90
27270;DHT22;14769;56.934;24.176;2022-11-20T06:40:50;-3.60;99.90
27270;DHT22;14769;56.934;24.176;2022-11-20T06:41:52;-3.60;99.90
27270;DHT22;14769;56.934;24.176;2022-11-20T06:42:59;-3.60;99.90
27270;DHT22;14769;56.934;24.176;2022-11-20T06:44:04;-3.60;99.90
27270;DHT22;14769;56.934;24.176;2022-11-20T06:45:06;-3.60;99.90
27270;DHT22;14769;56.934;24.176;2022-11-20T06:46:12;-3.60;99.90
27270;DHT22;14769;56.934;24.176;2022-11-20T06:47:15;-3.60;99.90
27270;DHT22;14769;56.934;24.176;2022-11-20T06:48:17;-3.60;99.90
27270;DHT22;14769;56.934;24.176;2022-11-20T06:49:19;-3.60;99.90
27270;DHT22;14769;56.934;24.176;2022-11-20T06:50:21;-3.60;99.90
27270;DHT22;14769;56.934;24.176;2022-11-20T06:51:24;-3.60;99.90
27270;DHT22;14769;56.934;24.176;2022-11-20T06:52:27;-3.60;99.90
27270;DHT22;14769;56.934;24.176;2022-11-20T06:53:30;-3.60;99.90
27270;DHT22;14769;56.934;24.176;2022-11-20T06:54:32;-3.60;99.90
27270;DHT22;14769;56.934;24.176;2022-11-20T06:55:35;-3.60;99.90
27270;DHT22;14769;56.934;24.176;2022-11-20T06:56:37;-3.60;99.90
27270;DHT22;14769;56.934;24.176;2022-11-20T06:57:39;-3.60;99.90
27270;DHT22;14769;56.934;24.176;2022-11-20T06:58:43;-3.60;99.90
27270;DHT22;14769;56.934;24.176;2022-11-20T06:59:44;-3.60;99.90
27270;DHT22;14769;56.934;24.176;2022-11-20T07:00:59;-3.60;99.90
27270;DHT22;14769;56.934;24.176;2022-11-20T07:02:03;-3.60;99.90
27270;DHT22;14769;56.934;24.176;2022-11-20T07:03:10;-3.50;99.90
27270;DHT22;14769;56.934;24.176;2022-11-20T07:04:19;-3.60;99.90
27270;DHT22;14769;56.934;24.176;2022-11-20T07:05:23;-3.60;99.90
27270;DHT22;14769;56.934;24.176;2022-11-20T07:06:27;-3.50;99.90
27270;DHT22;14769;56.934;24.176;2022-11-20T07:07:30;-3.60;99.90
27270;DHT22;14769;56.934;24.176;2022-11-20T07:08:33;-3.60;99.90
27270;DHT22;14769;56.934;24.176;2022-11-20T07:09:37;-3.50;99.90
27270;DHT22;14769;56.934;24.176;2022-11-20T07:10:40;-3.60;99.90
27270;DHT22;14769;56.934;24.176;2022-11-20T07:11:46;-3.50;99.90
27270;DHT22;14769;56.934;24.176;2022-11-20T07:13:01;-3.50;99.90
27270;DHT22;14769;56.934;24.176;2022-11-20T07:14:04;-3.50;99.90
27270;DHT22;14769;56.934;24.176;2022-11-20T07:15:09;-3.50;99.90
27270;DHT22;14769;56.934;24.176;2022-11-20T07:16:13;-3.50;99.90
27270;DHT22;14769;56.934;24.176;2022-11-20T07:17:16;-3.50;99.90
27270;DHT22;14769;56.934;24.176;2022-11-20T07:18:22;-3.50;99.90
27270;DHT22;14769;56.934;24.176;2022-11-20T07:19:24;-3.50;99.90
27270;DHT22;14769;56.934;24.176;2022-11-20T07:20:27;-3.50;99.90
27270;DHT22;14769;56.934;24.176;2022-11-20T07:21:31;-3.50;99.90
27270;DHT22;14769;56.934;24.176;2022-11-20T07:22:34;-3.40;99.90
27270;DHT22;14769;56.934;24.176;2022-11-20T07:23:37;-3.40;99.90
27270;DHT22;14769;56.934;24.176;2022-11-20T07:24:39;-3.40;99.90
27270;DHT22;14769;56.934;24.176;2022-11-20T07:25:46;-3.40;99.90
27270;DHT22;14769;56.934;24.176;2022-11-20T07:26:48;-3.40;99.90
27270;DHT22;14769;56.934;24.176;2022-11-20T07:27:51;-3.40;99.90
27270;DHT22;14769;56.934;24.176;2022-11-20T07:28:55;-3.40;99.90
27270;DHT22;14769;56.934;24.176;2022-11-20T07:29:58;-3.40;99.90
27270;DHT22;14769;56.934;24.176;2022-11-20T07:31:05;-3.30;99.90
27270;DHT22;14769;56.934;24.176;2022-11-20T07:32:24;-3.30;99.90
27270;DHT22;14769;56.934;24.176;2022-11-20T07:33:28;-3.30;99.90
27270;DHT22;14769;56.934;24.176;2022-11-20T07:34:32;-3.30;99.90
27270;DHT22;14769;56.934;24.176;2022-11-20T07:35:37;-3.30;99.90
27270;DHT22;14769;56.934;24.176;2022-11-20T07:36:44;-3.30;99.90
27270;DHT22;14769;56.934;24.176;2022-11-20T07:37:47;-3.30;99.90
27270;DHT22;14769;56.934;24.176;2022-11-20T07:38:50;-3.30;99.90
27270;DHT22;14769;56.934;24.176;2022-11-20T07:39:59;-3.30;99.90
27270;DHT22;14769;56.934;24.176;2022-11-20T07:41:01;-3.30;99.90
27270;DHT22;14769;56.934;24.176;2022-11-20T07:42:07;-3.30;99.90
27270;DHT22;14769;56.934;24.176;2022-11-20T07:43:09;-3.30;99.90
27270;DHT22;14769;56.934;24.176;2022-11-20T07:44:11;-3.30;99.90
27270;DHT22;14769;56.934;24.176;2022-11-20T07:45:14;-3.30;99.90
27270;DHT22;14769;56.934;24.176;2022-11-20T07:46:16;-3.30;99.90
27270;DHT22;14769;56.934;24.176;2022-11-20T07:47:20;-3.30;99.90
27270;DHT22;14769;56.934;24.176;2022-11-20T07:48:27;-3.20;99.90
27270;DHT22;14769;56.934;24.176;2022-11-20T07:49:29;-3.30;99.90
27270;DHT22;14769;56.934;24.176;2022-11-20T07:50:33;-3.20;99.90
27270;DHT22;14769;56.934;24.176;2022-11-20T07:51:35;-3.20;99.90